Hlavní strana
METAR-TAF:

METAR-TAF

Letiště :

Ventspils, Lotyšsko

zeměpisná šířka: 57-21-28N, zeměpisná délka: 021-32-39E, výška: 6 m

Aktuální stav počasí

Zpráva byla vytvořena před 33 minutami, v 13:20 UTC
Jihojihozápadní vítr 20 kt s nárazy do 31 kt
Teplota 5°C
Vlhkost vzduchu 81%
Tlak 999 hPa
Viditelnost 10 km a více
Oblačno až skoro zataženo ve výšce 2400 ft
Zataženo ve výšce 2900 ft

METAR: EVVA 181320Z AUTO 20020G31KT 9999 BKN024 OVC029 05/02 Q0999

Čas: 15:53 (13:53 UTC)


TAF: chybějící

Stav a předpovědi počasí z více než 4 000 letišť (zprávy METAR a TAF).

Červené a žluté tečky na mapě představují dostupné meteorologické stanice.

Když kurzor umístíte na tečku, zobrazí se název stanice.

Pak kliknutím zobrazíte stav a předpověď počasí.

Chcete-li změnit mapu, kliknutím na zelené tlačítko se znaménkem +mapu přiblížíte, kliknutím na zelené tlačítko se znaménkem – mapu oddálíte a kliknutím na zelené šipky přejdete na sousední mapy.


METAR-TAF: